^^
Station Historical Data
Daily Summary for January 14, 2018 Units:  Metric    English   Both
« Previous Day
Next Day »
Daily Weekly Monthly Yearly Custom
  High: Low: Average:
Temperature: -17.8 °C -29 °C -18.9 °C
Dew Point: -17.8 °C -31 °C -22.2 °C
Humidity: Humidity% 53% 77%
Wind Speed: 0km/h 0km/h 3.1km/h
Wind Gust: 0km/h - -
Wind- - South
Pressure: 0 hPa 1021.2 hPa -
Precipitation: 0 mm    
Historical Graphs
 
 
Tabular Data for January 14, 2018
Time Temperature Dew Point Pressure Wind Wind Speed Wind Gust Humidity Rainfall Rate (Hourly) solar Conditions
-17.8 °C -17.8 °C 0 hPa Calm     Humidity% 0 mm SolarRadiationWatts/m^2 W/m2 Conditions
00:01 -24 °C -25.7 °C 1032.4 hPa Calm     86% 0 mm 0.0 W/m2 CLR
00:18 -24 °C -25.1 °C 1032.4 hPa Calm     91% 0 mm 0.0 W/m2 CLR
00:24 -24 °C -25.1 °C 1032.4 hPa Calm     91% 0 mm 0.0 W/m2 CLR
00:32 -25 °C -26.7 °C 1032.4 hPa Calm     86% 0 mm 0.0 W/m2 CLR
00:38 -25 °C -26.8 °C 1032.4 hPa Calm     85% 0 mm 0.0 W/m2 CLR
00:48 -26 °C -27.7 °C 1032.1 hPa Calm     86% 0 mm 0.0 W/m2 CLR
01:03 -26 °C -27.4 °C 1032.4 hPa Calm     88% 0 mm 0.0 W/m2 CLR
01:10 -26 °C -27.4 °C 1032.1 hPa Calm     88% 0 mm 0.0 W/m2 CLR
01:28 -26 °C -27.4 °C 1032.7 hPa Calm     88% 0 mm 0.0 W/m2 CLR
01:43 -26 °C -27.8 °C 1032.7 hPa Calm     85% 0 mm 0.0 W/m2 CLR
01:52 -26 °C -27.8 °C 1032.7 hPa Calm     85% 0 mm 0.0 W/m2 CLR
01:58 -27 °C -28.8 °C 1032.7 hPa Calm     85% 0 mm 0.0 W/m2 CLR
02:12 -27 °C -28.6 °C 1033.1 hPa Calm     86% 0 mm 0.0 W/m2 CLR
02:25 -27 °C -28.6 °C 1033.1 hPa Calm     86% 0 mm 0.0 W/m2 CLR
02:32 -27 °C -28.6 °C 1032.7 hPa Calm     86% 0 mm 0.0 W/m2 CLR
02:37 -27 °C -28.6 °C 1032.7 hPa Calm     86% 0 mm 0.0 W/m2 CLR
02:43 -27 °C -28.6 °C 1032.7 hPa Calm     86% 0 mm 0.0 W/m2 CLR
02:49 -27 °C -28.6 °C 1032.7 hPa Calm     86% 0 mm 0.0 W/m2 CLR
03:05 -27 °C -28.6 °C 1032.7 hPa Calm     86% 0 mm 0.0 W/m2 CLR
03:18 -27 °C -28.8 °C 1033.1 hPa Calm     85% 0 mm 0.0 W/m2 CLR
03:29 -27 °C -28.8 °C 1032.7 hPa Calm     85% 0 mm 0.0 W/m2 CLR
03:35 -28 °C -29.7 °C 1032.7 hPa Calm     85% 0 mm 0.0 W/m2 CLR
03:44 -28 °C -30 °C 1032.7 hPa Calm     83% 0 mm 0.0 W/m2 CLR
03:51 -28 °C -29.6 °C 1032.7 hPa Calm     86% 0 mm 0.0 W/m2 CLR
04:01 -28 °C -30 °C 1032.4 hPa Calm     83% 0 mm 0.0 W/m2 CLR
04:22 -28 °C -29.6 °C 1032.1 hPa Calm     86% 0 mm 0.0 W/m2 CLR
04:33 -28 °C -30 °C 1032.1 hPa Calm     83% 0 mm 0.0 W/m2 CLR
04:40 -29 °C -30.7 °C 1032.4 hPa Calm     85% 0 mm 0.0 W/m2 CLR
04:46 -29 °C -30.7 °C 1032.4 hPa Calm     85% 0 mm 0.0 W/m2 CLR
05:03 -29 °C -30.7 °C 1032.4 hPa Calm     85% 0 mm 0.0 W/m2 CLR
05:10 -29 °C -30.6 °C 1032.7 hPa Calm     86% 0 mm 0.0 W/m2 CLR
06:07 -29 °C -30.7 °C 1032.4 hPa Calm     85% 0 mm 0.0 W/m2 CLR
06:12 -29 °C -30.6 °C 1032.4 hPa Calm     86% 0 mm 0.0 W/m2 CLR
06:21 -29 °C -30.6 °C 1032.1 hPa Calm     86% 0 mm 0.0 W/m2 CLR
06:27 -28 °C -29.4 °C 1032.4 hPa Calm     88% 0 mm 0.0 W/m2 CLR
06:33 -29 °C -30.6 °C 1032.1 hPa Calm     86% 0 mm 0.0 W/m2 CLR
06:41 -28 °C -29.4 °C 1032.1 hPa Calm     88% 0 mm 0.0 W/m2 CLR
06:47 -28 °C -29.6 °C 1032.1 hPa Calm     86% 0 mm 0.0 W/m2 CLR
06:52 -28 °C -29.6 °C 1031.7 hPa Calm     86% 0 mm 0.0 W/m2 CLR
07:04 -29 °C -30.7 °C 1032.1 hPa Calm     85% 0 mm 0.0 W/m2 CLR
07:13 -28 °C -29.6 °C 1032.1 hPa Calm     86% 0 mm 0.0 W/m2 CLR
07:21 -28 °C -29.6 °C 1032.1 hPa Calm     86% 0 mm 0.0 W/m2 CLR
07:28 -29 °C -31 °C 1032.1 hPa Calm     83% 0 mm 0.0 W/m2 CLR
07:34 -29 °C -31 °C 1032.1 hPa Calm     83% 0 mm 0.0 W/m2 CLR
07:44 -29 °C -31 °C 1032.1 hPa Calm     83% 0 mm 0.0 W/m2 CLR
07:50 -29 °C -31 °C 1032.1 hPa Calm     83% 0 mm 0.0 W/m2 CLR
07:55 -28 °C -29.6 °C 1032.1 hPa Calm     86% 0 mm 0.0 W/m2 CLR
08:01 -29 °C -31 °C 1032.1 hPa Calm     83% 0 mm 0.0 W/m2 CLR
08:13 -28 °C -29.6 °C 1031.7 hPa Calm     86% 0 mm 0.0 W/m2 CLR
08:25 -28 °C -29.6 °C 1032.1 hPa Calm     86% 0 mm 0.0 W/m2 CLR
08:37 -28 °C -29.7 °C 1031.7 hPa Calm     85% 0 mm 0.0 W/m2 CLR
08:45 -27 °C -28.2 °C 1032.1 hPa Calm     90% 0 mm 0.0 W/m2 CLR
09:10 -23 °C -24.1 °C 1031.7 hPa SSW 3.7 km/h 3.7 km/h 91% 0 mm 0.0 W/m2 CLR
09:26 -20 °C -21.5 °C 1031.7 hPa SW 5.6 km/h 5.6 km/h 88% 0 mm 0.0 W/m2 CLR
09:32 -20 °C -22.2 °C 1031.7 hPa SW 5.6 km/h 5.6 km/h 83% 0 mm 178.5 W/m2 CLR
09:48 -19 °C -21.4 °C 1031.7 hPa WSW 7.4 km/h 7.4 km/h 81% 0 mm 257.0 W/m2 CLR
09:56 -18 °C -20.8 °C 1031.7 hPa WSW 7.4 km/h 7.4 km/h 79% 0 mm 854.2 W/m2 CLR
10:06 -18 °C -21.3 °C 1031.7 hPa WSW 9.3 km/h 9.3 km/h 75% 0 mm 240.1 W/m2 CLR
10:12 -18 °C -21.3 °C 1032.1 hPa WSW 7.4 km/h 7.4 km/h 75% 0 mm 862.2 W/m2 CLR
10:41 -17 °C -21.3 °C 1031 hPa SW 13 km/h 13 km/h 69% 0 mm 833.9 W/m2 CLR
10:47 -16 °C -21.1 °C 1031 hPa WSW 11.1 km/h 11.1 km/h 65% 0 mm 876.4 W/m2 CLR
10:52 -16 °C -20.9 °C 1031 hPa SW 7.4 km/h 7.4 km/h 66% 0 mm 878.4 W/m2 CLR
11:04 -16 °C -21.4 °C 1030.7 hPa WSW 5.6 km/h 5.6 km/h 63% 0 mm 878.4 W/m2 CLR
11:11 -15 °C -20.8 °C 1030.4 hPa West 7.4 km/h 7.4 km/h 61% 0 mm 361.0 W/m2 CLR
11:38 -14 °C -20.3 °C 1030 hPa SSW 7.4 km/h 7.4 km/h 59% 0 mm 893.5 W/m2 CLR
12:23 -13 °C -19.9 °C 1028.7 hPa WSW 16.7 km/h 16.7 km/h 56% 0 mm 839.0 W/m2 CLR
12:29 -13 °C -20.2 °C 1028.7 hPa SSE 11.1 km/h 11.1 km/h 55% 0 mm 709.7 W/m2 CLR
12:48 -12 °C -19.7 °C 1028.3 hPa SW 14.8 km/h 14.8 km/h 53% 0 mm 571.3 W/m2 CLR
12:56 -12 °C -19.4 °C 1028 hPa South 18.5 km/h 18.5 km/h 54% 0 mm 548.1 W/m2 CLR
13:03 -12 °C -19.2 °C 1027.7 hPa South 7.4 km/h 7.4 km/h 55% 0 mm 603.7 W/m2 CLR
13:20 -12 °C -19.4 °C 1027.3 hPa South 7.4 km/h 7.4 km/h 54% 0 mm 333.0 W/m2 CLR
13:30 -12 °C -19.2 °C 1027.3 hPa SW 9.3 km/h 9.3 km/h 55% 0 mm 414.8 W/m2 CLR
13:36 -12 °C -19.4 °C 1027.3 hPa SSE 9.3 km/h 9.3 km/h 54% 0 mm 330.0 W/m2 CLR
13:41 -12 °C -19.2 °C 1027 hPa SSE 9.3 km/h 9.3 km/h 55% 0 mm 269.4 W/m2 CLR
13:50 -12 °C -19.4 °C 1026.6 hPa SE 11.1 km/h 11.1 km/h 54% 0 mm 785.5 W/m2 CLR
13:56 -12 °C -19.2 °C 1027 hPa SSE 11.1 km/h 11.1 km/h 55% 0 mm 543.1 W/m2 CLR
14:03 -12 °C -19.2 °C 1027 hPa SSE 9.3 km/h 9.3 km/h 55% 0 mm 552.2 W/m2 CLR
14:08 -12 °C -19 °C 1026.6 hPa SW 9.3 km/h 9.3 km/h 56% 0 mm 264.0 W/m2 CLR
14:28 -12 °C -19.2 °C 1026.3 hPa SW 5.6 km/h 5.6 km/h 55% 0 mm 272.4 W/m2 CLR
14:36 -11 °C -18.3 °C 1026 hPa South 5.6 km/h 5.6 km/h 55% 0 mm 213.0 W/m2 CLR
14:41 -11 °C -18.3 °C 1026.3 hPa South 5.6 km/h 5.6 km/h 55% 0 mm 254.2 W/m2 CLR
14:48 -11 °C -18.3 °C 1026.3 hPa SSW 5.6 km/h 5.6 km/h 55% 0 mm 236.0 W/m2 CLR
15:00 -11 °C -18.3 °C 1026 hPa SSW 5.6 km/h 5.6 km/h 55% 0 mm 240.1 W/m2 CLR
15:20 -11 °C -18.1 °C 1026 hPa NW 7.4 km/h 7.4 km/h 56% 0 mm 223.9 W/m2 BKN
15:26 -11 °C -18.1 °C 1025.6 hPa WSW 9.3 km/h 9.3 km/h 56% 0 mm 111.0 W/m2 BKN
15:37 -12 °C -18.6 °C 1025.6 hPa WSW 7.4 km/h 7.4 km/h 58% 0 mm 88.0 W/m2 BKN
15:45 -12 °C -18.2 °C 1025.6 hPa West 5.6 km/h 5.6 km/h 60% 0 mm 192.6 W/m2 BKN
15:51 -12 °C -18.2 °C 1025.6 hPa SSW 5.6 km/h 5.6 km/h 60% 0 mm 184.5 W/m2 BKN
16:00 -12 °C -18 °C 1025.6 hPa SSW 3.7 km/h 3.7 km/h 61% 0 mm 173.4 W/m2 BKN
16:05 -12 °C -18 °C 1025.6 hPa SW 3.7 km/h 3.7 km/h 61% 0 mm 167.3 W/m2 OVC
16:55 -12 °C -17.6 °C 1024.9 hPa SE 3.7 km/h 3.7 km/h 63% 0 mm 0.0 W/m2 OVC
17:00 -12 °C -17.6 °C 1024.9 hPa SSE 3.7 km/h 3.7 km/h 63% 0 mm 42.1 W/m2 OVC
17:05 -12 °C -17.2 °C 1024.9 hPa SSW 3.7 km/h 3.7 km/h 65% 0 mm 0.0 W/m2 OVC
17:22 -12 °C -17.2 °C 1024.9 hPa SW 5.6 km/h 5.6 km/h 65% 0 mm 0.0 W/m2 OVC
17:37 -12 °C -17.1 °C 1024.6 hPa South 3.7 km/h   66% 0 mm 0.0 W/m2 OVC
17:58 -12 °C -16.7 °C 1024.3 hPa South 5.6 km/h   68% 0 mm 0.0 W/m2 OVC
18:05 -12 °C -17.1 °C 1024.3 hPa WSW 1.9 km/h 1.9 km/h 66% 0 mm 0.0 W/m2 OVC
18:32 -12 °C -16.7 °C 1023.9 hPa SSE 3.7 km/h   68% 0 mm 0.0 W/m2 OVC
18:39 -12 °C -16.7 °C 1023.6 hPa South 3.7 km/h 3.7 km/h 68% 0 mm 0.0 W/m2 OVC
18:44 -12 °C -16.7 °C 1023.9 hPa SW 3.7 km/h   68% 0 mm 0.0 W/m2 OVC
18:57 -12 °C -16.7 °C 1023.9 hPa ENE 5.6 km/h 5.6 km/h 68% 0 mm 0.0 W/m2 OVC
19:05 -12 °C -16.6 °C 1023.9 hPa NE 5.6 km/h 5.6 km/h 69% 0 mm 0.0 W/m2 OVC
19:19 -12 °C -16.4 °C 1023.6 hPa SSW 1.9 km/h   70% 0 mm 0.0 W/m2 OVC
19:43 -12 °C -14.9 °C 1023.2 hPa East 1.9 km/h   79% 0 mm 0.0 W/m2 OVC
19:55 -12 °C -14.7 °C 1023.2 hPa NE 3.7 km/h 3.7 km/h 80% 0 mm 0.0 W/m2 -SN
20:06 -12 °C -14.6 °C 1023.2 hPa East 3.7 km/h   81% 0 mm 0.0 W/m2 -SN
20:23 -12 °C -14.3 °C 1022.6 hPa Calm     83% 0 mm 0.0 W/m2 -SN
20:33 -12 °C -13.9 °C 1022.6 hPa Calm     86% 0 mm 0.0 W/m2 -SN
20:38 -12 °C -13.9 °C 1022.6 hPa Calm     86% 0 mm 0.0 W/m2 -SN
20:44 -12 °C -13.6 °C 1022.6 hPa Calm     88% 0 mm 0.0 W/m2 -SN
20:59 -12 °C -13.9 °C 1022.6 hPa Calm     86% 0 mm 0.0 W/m2 -SN
21:11 -12 °C -13.6 °C 1022.6 hPa Calm     88% 0 mm 0.0 W/m2 -SN
21:34 -12 °C -13.6 °C 1022.2 hPa Calm     88% 0 mm 0.0 W/m2 -SN
21:42 -12 °C -13.6 °C 1022.2 hPa Calm     88% 0 mm 0.0 W/m2 -SN
21:49 -11 °C -12.3 °C 1022.2 hPa Calm     90% 0 mm 0.0 W/m2 -SN
21:58 -11 °C -12.2 °C 1022.2 hPa Calm     91% 0 mm 0.0 W/m2 -SN
22:30 -11 °C -11.7 °C 1022.2 hPa SSW 1.9 km/h 1.9 km/h 95% 0 mm 0.0 W/m2 -SN
22:35 -11 °C -11.7 °C 1021.9 hPa NE 1.9 km/h   95% 0 mm 0.0 W/m2 -SN
22:44 -11 °C -11.5 °C 1021.9 hPa East 1.9 km/h   96% 0 mm 0.0 W/m2 -SN
22:50 -11 °C -11.5 °C 1021.9 hPa ENE 1.9 km/h 1.9 km/h 96% 0 mm 0.0 W/m2 -SN
23:01 -11 °C -11.5 °C 1021.9 hPa South 1.9 km/h   96% 0 mm 0.0 W/m2 -SN
23:07 -11 °C -11.5 °C 1021.6 hPa Calm     96% 0 mm 0.0 W/m2 -SN
23:13 -11 °C -11.5 °C 1021.6 hPa Calm     96% 0 mm 0.0 W/m2 -SN
23:53 -11 °C -11.5 °C 1021.2 hPa Calm     96% 0 mm 0.0 W/m2 -SN
Juneau County Weather
Compliments of Weather Underground - 4.75 mb